Time;durP1;ratioP1;P1;durP2;ratioP2;P2;SDS_P1;SDS_P2;PMS_P1;PMS_P2;Temp;Humidity;BMP_temperature;BMP_pressure;BME280_temperature;BME280_humidity;BME280_pressure;Samples;Min_cycle;Max_cycle;Signal;HPM_P1;HPM_P2
2022/04/12 00:01:11;;;;;;;8.27;7.37;;;6.10;99.90;;;;;;5052280;28;20642;-52
2022/04/12 00:03:40;;;;;;;8.27;7.17;;;6.10;99.90;;;;;;5052632;28;20270;-52
2022/04/12 00:06:10;;;;;;;6.87;6.00;;;6.10;99.90;;;;;;5052748;28;20608;-52
2022/04/12 00:08:38;;;;;;;8.90;5.93;;;6.00;99.90;;;;;;5053233;28;20257;-52
2022/04/12 00:11:06;;;;;;;8.87;7.03;;;6.00;99.90;;;;;;5052887;28;20278;-52
2022/04/12 00:13:35;;;;;;;8.30;6.13;;;6.00;99.90;;;;;;5052726;28;20222;-52
2022/04/12 00:16:03;;;;;;;7.17;5.57;;;6.10;99.90;;;;;;5052718;28;20708;-52
2022/04/12 00:21:19;;;;;;;8.63;6.00;;;6.00;99.90;;;;;;5052873;28;20229;-52
2022/04/12 00:23:48;;;;;;;9.97;5.87;;;6.00;99.90;;;;;;5052432;28;20207;-53
2022/04/12 00:26:16;;;;;;;7.57;6.67;;;6.10;99.90;;;;;;5052958;28;20216;-51
2022/04/12 00:28:44;;;;;;;7.57;6.63;;;6.00;99.90;;;;;;5052768;28;20261;-52
2022/04/12 00:31:12;;;;;;;9.00;6.30;;;6.00;99.90;;;;;;5051714;28;20234;-52
2022/04/12 00:33:41;;;;;;;8.77;6.47;;;6.00;99.90;;;;;;5051617;28;20725;-52
2022/04/12 00:36:09;;;;;;;9.07;5.67;;;6.10;99.90;;;;;;5052980;28;20717;-52
2022/04/12 00:38:40;;;;;;;7.53;5.83;;;6.10;99.90;;;;;;5052591;28;20205;-52
2022/04/12 00:41:10;;;;;;;8.83;5.93;;;6.10;99.90;;;;;;5052499;28;20947;-52
2022/04/12 00:43:40;;;;;;;9.07;5.90;;;6.20;99.90;;;;;;5052110;28;20230;-52
2022/04/12 00:46:08;;;;;;;6.97;5.63;;;6.10;99.90;;;;;;5052585;28;20211;-52
2022/04/12 00:48:36;;;;;;;10.00;6.30;;;6.10;99.90;;;;;;5052728;28;20290;-52
2022/04/12 00:51:04;;;;;;;8.80;5.93;;;6.00;99.90;;;;;;5052289;28;20807;-52
2022/04/12 00:53:33;;;;;;;7.10;6.00;;;6.00;99.90;;;;;;5051973;28;20222;-52
2022/04/12 00:56:03;;;;;;;8.73;6.23;;;6.00;99.90;;;;;;5052011;28;20273;-52
2022/04/12 00:58:31;;;;;;;7.30;5.90;;;5.90;99.90;;;;;;5052365;28;20615;-52
2022/04/12 01:00:59;;;;;;;6.83;5.00;;;5.90;99.90;;;;;;5052077;28;20197;-51
2022/04/12 01:03:27;;;;;;;6.63;5.27;;;5.90;99.90;;;;;;5051528;28;20202;-51
2022/04/12 01:05:57;;;;;;;7.13;5.17;;;5.90;99.90;;;;;;5051979;28;20261;-51
2022/04/12 01:08:25;;;;;;;6.27;5.53;;;5.90;99.90;;;;;;5052422;28;20584;-51
2022/04/12 01:10:53;;;;;;;8.57;6.10;;;5.90;99.90;;;;;;5051757;28;20207;-52
2022/04/12 01:13:23;;;;;;;8.20;6.00;;;5.80;99.90;;;;;;5051680;28;20285;-51
2022/04/12 01:15:51;;;;;;;9.83;6.23;;;5.80;99.90;;;;;;5052194;28;20248;-51
2022/04/12 01:18:19;;;;;;;9.50;5.53;;;5.80;99.90;;;;;;5052068;28;20207;-51
2022/04/12 01:20:47;;;;;;;7.63;6.13;;;5.80;99.90;;;;;;5052020;28;20210;-52
2022/04/12 01:23:21;;;;;;;8.33;6.47;;;5.80;99.90;;;;;;5051159;28;20248;-52
2022/04/12 01:25:51;;;;;;;10.13;5.90;;;5.90;99.90;;;;;;5051733;28;20192;-51
2022/04/12 01:28:19;;;;;;;7.73;6.43;;;5.90;99.90;;;;;;5051896;28;20205;-52
2022/04/12 01:30:47;;;;;;;6.97;5.87;;;5.90;99.90;;;;;;5049995;28;20206;-52
2022/04/12 01:33:15;;;;;;;7.63;6.07;;;5.90;99.90;;;;;;5049853;28;20276;-51
2022/04/12 01:35:43;;;;;;;6.87;5.80;;;5.90;99.90;;;;;;5031693;28;20192;-51
2022/04/12 01:38:11;;;;;;;6.50;5.70;;;5.90;99.90;;;;;;5031434;28;20869;-51
2022/04/12 01:40:39;;;;;;;6.30;5.67;;;5.90;99.90;;;;;;5031336;28;20216;-51
2022/04/12 01:43:10;;;;;;;9.73;5.77;;;5.80;99.90;;;;;;5030524;28;20215;-52
2022/04/12 01:45:38;;;;;;;7.83;5.80;;;5.90;99.90;;;;;;5031366;28;20215;-51
2022/04/12 01:48:07;;;;;;;7.47;6.23;;;5.90;99.90;;;;;;5031183;28;20278;-51
2022/04/12 01:50:35;;;;;;;9.43;6.33;;;5.80;99.90;;;;;;5031030;28;20746;-51
2022/04/12 01:53:03;;;;;;;8.20;6.07;;;5.80;99.90;;;;;;5042465;28;20279;-51
2022/04/12 01:55:31;;;;;;;7.47;5.43;;;5.70;99.90;;;;;;5051132;28;20217;-51
2022/04/12 01:57:59;;;;;;;6.90;5.20;;;5.70;99.90;;;;;;5051243;28;20206;-52
2022/04/12 02:00:29;;;;;;;6.97;5.67;;;5.70;99.90;;;;;;5050896;28;20231;-52
2022/04/12 02:02:57;;;;;;;8.63;6.60;;;5.70;99.90;;;;;;5050465;28;20224;-54
2022/04/12 02:05:25;;;;;;;8.47;6.50;;;5.60;99.90;;;;;;5051168;28;20206;-51
2022/04/12 02:07:53;;;;;;;9.53;6.13;;;5.50;99.90;;;;;;5050886;28;20206;-51
2022/04/12 02:10:22;;;;;;;8.40;6.30;;;5.60;99.90;;;;;;5051453;28;20259;-52
2022/04/12 02:12:51;;;;;;;7.20;6.37;;;5.60;99.90;;;;;;5050442;28;20234;-52
2022/04/12 02:15:19;;;;;;;7.87;6.63;;;5.60;99.90;;;;;;5050975;28;20240;-52
2022/04/12 02:17:48;;;;;;;9.70;5.67;;;5.50;99.90;;;;;;5050646;28;20213;-52
2022/04/12 02:20:17;;;;;;;7.60;6.27;;;5.50;99.90;;;;;;5050897;28;20249;-52
2022/04/12 02:22:45;;;;;;;7.23;6.00;;;5.50;99.90;;;;;;5050304;28;20229;-51
2022/04/12 02:25:13;;;;;;;7.30;6.00;;;5.50;99.90;;;;;;5051254;28;20670;-51
2022/04/12 02:27:41;;;;;;;8.93;6.03;;;5.50;99.90;;;;;;5050389;28;20206;-52
2022/04/12 02:30:11;;;;;;;6.77;5.47;;;5.50;99.90;;;;;;5050436;28;20215;-51
2022/04/12 02:32:39;;;;;;;7.37;5.27;;;5.40;99.90;;;;;;5050429;28;20644;-52
2022/04/12 02:35:09;;;;;;;7.90;5.67;;;5.40;99.90;;;;;;5050626;28;20205;-52
2022/04/12 02:37:37;;;;;;;6.17;5.17;;;5.30;99.90;;;;;;5051005;28;20216;-52
2022/04/12 02:40:07;;;;;;;9.57;6.37;;;5.30;99.90;;;;;;5050843;28;20202;-52
2022/04/12 02:42:35;;;;;;;7.93;6.03;;;5.30;99.90;;;;;;5052350;28;20638;-52
2022/04/12 02:45:04;;;;;;;8.60;5.90;;;5.30;99.90;;;;;;5054743;28;20343;-51
2022/04/12 02:47:32;;;;;;;10.53;5.40;;;5.20;99.90;;;;;;5055111;28;20223;-51
2022/04/12 02:50:00;;;;;;;8.63;5.13;;;5.20;99.90;;;;;;5054729;28;20620;-52
2022/04/12 02:52:29;;;;;;;6.47;4.80;;;5.20;99.90;;;;;;5054413;28;20239;-51
2022/04/12 02:54:58;;;;;;;6.73;4.80;;;5.20;99.90;;;;;;5054312;28;20636;-51
2022/04/12 02:57:26;;;;;;;8.10;5.03;;;5.20;99.90;;;;;;5054385;28;20820;-51
2022/04/12 02:59:54;;;;;;;6.03;4.97;;;5.20;99.90;;;;;;5054676;28;20208;-51
2022/04/12 03:02:22;;;;;;;6.70;4.67;;;5.20;99.90;;;;;;5054000;28;20259;-52
2022/04/12 03:04:50;;;;;;;6.23;4.73;;;5.10;99.90;;;;;;5054470;28;20205;-52
2022/04/12 03:07:18;;;;;;;8.27;4.80;;;5.10;99.90;;;;;;5054492;28;20209;-51
2022/04/12 03:09:48;;;;;;;5.27;4.77;;;5.10;99.90;;;;;;5054839;28;20704;-51
2022/04/12 03:12:16;;;;;;;8.23;5.50;;;5.10;99.90;;;;;;5053280;28;20282;-52
2022/04/12 03:14:44;;;;;;;8.77;6.37;;;5.10;99.90;;;;;;5053595;28;20230;-52
2022/04/12 03:17:16;;;;;;;10.27;6.83;;;5.10;99.90;;;;;;5054384;28;20192;-50
2022/04/12 03:19:44;;;;;;;9.20;6.83;;;5.20;99.90;;;;;;5047912;28;20210;-52
2022/04/12 03:22:12;;;;;;;9.53;6.57;;;5.30;99.90;;;;;;5033837;28;20257;-52
2022/04/12 03:24:40;;;;;;;8.87;6.43;;;5.30;99.90;;;;;;5034152;28;20611;-51
2022/04/12 03:27:10;;;;;;;10.00;6.33;;;5.30;99.90;;;;;;5034459;28;20902;-52
2022/04/12 03:29:38;;;;;;;9.93;5.97;;;5.30;99.90;;;;;;5032411;28;20262;-52
2022/04/12 03:32:07;;;;;;;7.70;5.33;;;5.20;99.90;;;;;;5034244;28;20276;-51
2022/04/12 03:34:36;;;;;;;7.73;4.80;;;5.20;99.90;;;;;;5045517;28;20237;-51
2022/04/12 03:37:04;;;;;;;5.67;4.77;;;5.20;99.90;;;;;;5054183;28;20210;-51
2022/04/12 03:39:32;;;;;;;4.77;4.27;;;5.10;99.90;;;;;;5053630;28;20639;-52
2022/04/12 03:42:00;;;;;;;6.27;4.83;;;5.10;99.90;;;;;;5053411;28;20284;-51
2022/04/12 03:44:30;;;;;;;6.93;5.37;;;5.10;99.90;;;;;;5053929;28;20232;-52
2022/04/12 03:46:58;;;;;;;7.90;5.30;;;5.00;99.90;;;;;;5053864;28;20213;-51
2022/04/12 03:49:26;;;;;;;4.80;4.30;;;5.00;99.90;;;;;;5053606;28;20212;-52
2022/04/12 03:51:54;;;;;;;5.03;4.40;;;5.00;99.90;;;;;;5052825;28;20284;-51
2022/04/12 03:54:24;;;;;;;8.00;5.60;;;4.90;99.90;;;;;;5053005;28;20221;-52
2022/04/12 03:56:53;;;;;;;6.03;5.10;;;4.90;99.90;;;;;;5052932;28;20210;-52
2022/04/12 03:59:21;;;;;;;8.20;5.13;;;4.90;99.90;;;;;;5053660;28;20554;-52
2022/04/12 04:01:51;;;;;;;8.90;6.20;;;4.90;99.90;;;;;;5052689;28;20709;-52
2022/04/12 04:04:20;;;;;;;7.30;6.40;;;4.90;99.90;;;;;;5053172;28;20211;-52
2022/04/12 04:06:48;;;;;;;7.60;5.70;;;4.80;99.90;;;;;;5053098;28;20246;-52
2022/04/12 04:09:16;;;;;;;11.23;6.70;;;4.80;99.90;;;;;;5053042;28;20205;-51
2022/04/12 04:11:45;;;;;;;7.83;5.47;;;4.80;99.90;;;;;;5052660;28;20283;-52
2022/04/12 04:14:15;;;;;;;8.53;5.20;;;4.80;99.90;;;;;;5053212;28;20226;-52
2022/04/12 04:16:43;;;;;;;7.87;5.20;;;4.70;99.90;;;;;;5053336;28;20288;-52
2022/04/12 04:19:13;;;;;;;6.00;4.67;;;4.60;99.90;;;;;;5052491;28;20678;-52
2022/04/12 04:21:41;;;;;;;6.20;4.87;;;4.60;99.90;;;;;;5052694;28;20282;-52
2022/04/12 04:24:09;;;;;;;4.73;4.23;;;4.60;99.90;;;;;;5052879;28;20262;-52
2022/04/12 04:26:38;;;;;;;5.57;4.17;;;4.60;99.90;;;;;;5053355;28;20207;-52
2022/04/12 04:29:06;;;;;;;7.60;5.47;;;4.50;99.90;;;;;;5052873;28;20576;-52
2022/04/12 04:31:35;;;;;;;6.90;5.47;;;4.60;99.90;;;;;;5052142;28;20224;-52
2022/04/12 04:34:03;;;;;;;7.37;5.57;;;4.60;99.90;;;;;;5044432;28;20306;-52
2022/04/12 04:36:32;;;;;;;7.67;5.37;;;4.60;99.90;;;;;;5032658;28;20667;-52
2022/04/12 04:39:01;;;;;;;8.23;5.57;;;4.60;99.90;;;;;;5032766;28;20259;-52
2022/04/12 04:41:29;;;;;;;8.37;5.67;;;4.60;99.90;;;;;;5032920;28;20261;-52
2022/04/12 04:43:58;;;;;;;7.03;5.33;;;4.60;99.90;;;;;;5031973;28;20209;-52
2022/04/12 04:46:26;;;;;;;7.27;5.90;;;4.60;99.90;;;;;;5032190;28;20216;-51
2022/04/12 04:48:54;;;;;;;10.13;5.87;;;4.60;99.90;;;;;;5032565;28;20211;-52
2022/04/12 04:51:22;;;;;;;6.63;5.40;;;4.70;99.90;;;;;;5039892;28;20265;-52
2022/04/12 04:53:58;;;;;;;6.63;5.37;;;4.70;99.90;;;;;;5052047;28;20269;-52
2022/04/12 04:56:26;;;;;;;7.97;5.60;;;4.80;99.90;;;;;;5052004;28;20191;-51
2022/04/12 04:58:57;;;;;;;8.30;5.50;;;4.80;99.90;;;;;;5051637;28;20213;-52
2022/04/12 05:01:25;;;;;;;8.07;5.70;;;4.80;99.90;;;;;;5052301;28;20224;-51
2022/04/12 05:03:53;;;;;;;7.63;5.63;;;4.90;99.90;;;;;;5051555;28;20234;-51
2022/04/12 05:06:21;;;;;;;6.53;5.03;;;5.00;99.90;;;;;;5051526;28;20240;-51
2022/04/12 05:08:51;;;;;;;7.33;5.67;;;5.00;99.90;;;;;;5051830;28;20730;-51
2022/04/12 05:11:19;;;;;;;6.80;5.77;;;5.20;99.90;;;;;;5052019;28;20225;-52
2022/04/12 05:13:47;;;;;;;7.60;5.80;;;5.90;99.90;;;;;;5051467;28;20275;-51
2022/04/12 05:16:15;;;;;;;8.73;6.13;;;6.40;99.90;;;;;;5052067;28;20640;-51
2022/04/12 05:18:43;;;;;;;5.70;5.20;;;6.60;99.90;;;;;;5051823;28;20211;-52
2022/04/12 05:21:11;;;;;;;6.73;5.40;;;6.60;99.90;;;;;;5052118;28;20315;-51
2022/04/12 05:23:40;;;;;;;7.30;5.50;;;6.60;99.90;;;;;;5050944;28;20217;-51
2022/04/12 05:26:10;;;;;;;8.10;6.00;;;6.70;99.90;;;;;;5051911;28;20212;-51
2022/04/12 05:28:43;;;;;;;8.33;6.83;;;6.90;99.90;;;;;;5052100;28;20276;-51
2022/04/12 05:31:11;;;;;;;7.10;6.10;;;7.10;99.90;;;;;;5050294;28;20233;-52
2022/04/12 05:33:39;;;;;;;10.37;6.03;;;7.20;99.90;;;;;;5051075;28;20718;-51
2022/04/12 05:36:08;;;;;;;7.87;6.67;;;7.00;99.90;;;;;;5051131;28;20229;-51
2022/04/12 05:38:36;;;;;;;8.90;6.80;;;6.90;99.90;;;;;;5045391;28;20619;-51
2022/04/12 05:41:04;;;;;;;11.77;7.50;;;6.90;99.90;;;;;;5037288;28;20211;-51
2022/04/12 05:43:34;;;;;;;10.50;7.20;;;6.90;99.90;;;;;;5040394;28;20212;-51
2022/04/12 05:46:02;;;;;;;11.63;7.47;;;7.00;99.90;;;;;;5031205;28;20214;-52
2022/04/12 05:48:30;;;;;;;10.63;7.50;;;7.20;99.90;;;;;;5030905;28;20816;-51
2022/04/12 05:50:58;;;;;;;12.73;7.77;;;7.40;99.90;;;;;;5029920;28;20209;-52
2022/04/12 05:53:28;;;;;;;10.63;7.00;;;7.60;99.90;;;;;;5041125;28;20554;-51
2022/04/12 05:55:56;;;;;;;9.73;6.63;;;7.80;99.90;;;;;;5050960;28;20226;-51
2022/04/12 05:58:25;;;;;;;10.80;7.47;;;7.90;99.90;;;;;;5050524;28;20267;-51
2022/04/12 06:00:54;;;;;;;10.37;7.53;;;8.00;99.90;;;;;;5049105;28;20205;-51
2022/04/12 06:03:22;;;;;;;11.00;7.57;;;8.00;99.90;;;;;;5050494;28;20355;-52
2022/04/12 06:05:51;;;;;;;10.53;7.57;;;8.00;99.90;;;;;;5050865;28;20205;-51
2022/04/12 06:08:19;;;;;;;12.07;7.60;;;8.20;99.90;;;;;;5051041;28;20195;-52
2022/04/12 06:10:47;;;;;;;10.60;7.80;;;8.20;99.90;;;;;;5050517;28;20206;-52
2022/04/12 06:13:15;;;;;;;11.80;7.13;;;8.30;99.90;;;;;;5050198;28;20637;-51
2022/04/12 06:15:43;;;;;;;9.80;7.77;;;8.40;99.90;;;;;;5050534;28;20260;-51
2022/04/12 06:18:13;;;;;;;10.23;7.67;;;8.60;99.90;;;;;;5038692;28;20205;-52
2022/04/12 06:20:42;;;;;;;11.50;7.50;;;8.90;99.90;;;;;;5030419;28;20257;-52
2022/04/12 06:23:10;;;;;;;11.43;7.63;;;9.30;99.90;;;;;;5030218;28;20226;-52
2022/04/12 06:25:39;;;;;;;9.10;7.30;;;9.40;99.90;;;;;;5030520;28;20211;-52
2022/04/12 06:28:08;;;;;;;12.60;8.13;;;9.70;99.90;;;;;;5030790;28;20268;-52
2022/04/12 06:30:36;;;;;;;10.23;7.90;;;9.70;99.90;;;;;;5030718;28;20214;-52
2022/04/12 06:33:04;;;;;;;9.87;7.97;;;9.50;99.90;;;;;;5030276;28;20226;-51
2022/04/12 06:35:34;;;;;;;10.03;7.70;;;9.60;99.90;;;;;;5030587;28;20230;-51
2022/04/12 06:38:03;;;;;;;14.67;9.47;;;10.10;99.90;;;;;;5030561;28;20260;-52
2022/04/12 06:40:32;;;;;;;11.17;8.63;;;10.50;99.90;;;;;;5039118;28;20240;-52
2022/04/12 06:43:01;;;;;;;12.70;8.53;;;10.70;99.90;;;;;;5048899;28;20266;-51
2022/04/12 06:45:29;;;;;;;10.23;7.37;;;11.10;99.90;;;;;;5048414;28;20209;-52
2022/04/12 06:48:00;;;;;;;11.67;8.47;;;11.40;99.90;;;;;;5046684;28;20288;-52
2022/04/12 06:50:29;;;;;;;10.53;7.97;;;11.60;99.90;;;;;;5034432;28;20210;-52
2022/04/12 06:52:59;;;;;;;11.53;8.17;;;11.70;99.90;;;;;;5049381;28;20251;-52
2022/04/12 06:55:28;;;;;;;9.90;7.90;;;11.50;99.90;;;;;;5050577;28;20225;-52
2022/04/12 06:57:56;;;;;;;10.77;8.10;;;11.20;99.90;;;;;;5050348;28;20214;-52
2022/04/12 07:00:25;;;;;;;10.60;8.10;;;11.20;99.90;;;;;;5050380;28;20241;-52
2022/04/12 07:02:54;;;;;;;10.80;8.70;;;11.50;99.90;;;;;;5048462;28;20226;-52
2022/04/12 07:05:22;;;;;;;10.23;8.07;;;11.70;99.90;;;;;;5050166;28;20631;-52
2022/04/12 07:07:50;;;;;;;11.00;7.53;;;12.20;99.90;;;;;;5050591;28;20205;-52
2022/04/12 07:10:20;;;;;;;8.67;7.03;;;12.50;99.90;;;;;;5049889;28;20612;-52
2022/04/12 07:12:53;;;;;;;11.60;8.30;;;12.70;99.90;;;;;;5049343;28;20651;-52
2022/04/12 07:15:22;;;;;;;10.33;7.60;;;12.80;99.90;;;;;;5049349;28;20591;-52
2022/04/12 07:17:50;;;;;;;10.60;8.63;;;12.90;99.90;;;;;;5050270;28;20259;-52
2022/04/12 07:20:18;;;;;;;10.30;8.10;;;13.30;99.90;;;;;;5050100;28;20263;-51
2022/04/12 07:22:46;;;;;;;11.03;8.77;;;13.60;99.90;;;;;;5049730;28;20226;-52
2022/04/12 07:25:14;;;;;;;12.55;8.50;;;13.80;99.90;;;;;;5050135;28;20209;-52
2022/04/12 07:27:43;;;;;;;9.73;7.97;;;14.20;99.90;;;;;;5050329;28;20202;-52
2022/04/12 07:30:12;;;;;;;9.57;7.72;;;14.40;99.90;;;;;;5053836;28;20773;-52
2022/04/12 07:32:58;;;;;;;10.77;8.10;;;14.40;99.90;;;;;;5053477;28;20226;-52
2022/04/12 07:35:27;;;;;;;9.40;7.68;;;14.50;99.90;;;;;;5053431;28;20213;-52
2022/04/12 07:37:55;;;;;;;10.07;8.20;;;14.40;99.90;;;;;;5052880;28;20206;-52
2022/04/12 07:40:23;;;;;;;13.25;8.65;;;14.40;99.90;;;;;;5053111;28;20214;-52
2022/04/12 07:42:53;;;;;;;10.07;8.05;;;14.50;99.90;;;;;;5052814;28;20742;-52
2022/04/12 07:45:21;;;;;;;10.27;7.20;;;14.70;99.90;;;;;;5052913;28;20248;-53
2022/04/12 07:47:49;;;;;;;10.57;7.82;;;14.80;99.90;;;;;;5044211;28;20236;-53
2022/04/12 07:50:17;;;;;;;11.30;8.27;;;15.00;99.90;;;;;;5033760;28;20210;-53
2022/04/12 07:52:45;;;;;;;12.80;9.73;;;15.20;99.90;;;;;;5033115;28;20237;-52
2022/04/12 07:55:13;;;;;;;10.60;8.57;;;15.20;99.90;;;;;;5035371;28;20255;-52
2022/04/12 07:57:41;;;;;;;9.93;7.35;;;15.20;99.90;;;;;;5034670;28;20221;-53
2022/04/12 08:00:12;;;;;;;11.25;8.35;;;15.10;99.90;;;;;;5044859;28;20202;-53
2022/04/12 08:02:40;;;;;;;9.02;7.22;;;14.90;99.90;;;;;;5050855;28;20233;-52
2022/04/12 08:05:09;;;;;;;9.77;7.78;;;14.70;99.90;;;;;;5048974;28;20284;-52
2022/04/12 08:07:37;;;;;;;9.77;7.28;;;14.50;99.90;;;;;;5042268;28;20749;-53
2022/04/12 08:10:06;;;;;;;9.30;7.07;;;14.50;99.90;;;;;;5049619;28;20201;-52
2022/04/12 08:12:34;;;;;;;12.30;7.73;;;14.40;99.90;;;;;;5053377;28;20264;-52
2022/04/12 08:15:05;;;;;;;9.00;7.30;;;14.40;99.90;;;;;;5053781;28;20238;-51
2022/04/12 08:17:35;;;;;;;9.50;7.35;;;14.40;99.90;;;;;;5053535;28;20272;-52
2022/04/12 08:20:03;;;;;;;9.77;7.53;;;14.50;99.90;;;;;;5032804;28;20260;-52
2022/04/12 08:22:32;;;;;;;10.20;7.47;;;14.60;99.90;;;;;;5048969;28;20225;-52
2022/04/12 08:25:16;;;;;;;8.88;6.97;;;14.70;99.90;;;;;;5052853;28;20193;-51
2022/04/12 08:27:44;;;;;;;11.95;7.70;;;14.70;99.90;;;;;;5052397;28;20205;-52
2022/04/12 08:30:13;;;;;;;10.07;7.13;;;14.70;99.90;;;;;;5052169;28;20206;-52
2022/04/12 08:32:43;;;;;;;9.07;7.15;;;14.80;99.90;;;;;;5052265;28;20248;-52
2022/04/12 08:35:11;;;;;;;8.18;7.05;;;14.90;99.90;;;;;;5049422;28;20222;-53
2022/04/12 08:37:39;;;;;;;9.60;7.38;;;14.80;99.90;;;;;;5032033;28;20280;-52
2022/04/12 08:40:08;;;;;;;10.45;7.38;;;14.80;99.90;;;;;;5038053;28;20210;-52
2022/04/12 08:42:36;;;;;;;8.95;7.05;;;14.80;99.90;;;;;;5034279;28;20604;-51
2022/04/12 08:45:06;;;;;;;9.57;7.28;;;14.80;99.90;;;;;;5032719;28;20341;-52
2022/04/12 08:47:35;;;;;;;12.97;8.70;;;14.80;99.90;;;;;;5032225;28;20202;-52
2022/04/12 08:50:06;;;;;;;10.82;7.63;;;14.80;99.90;;;;;;5032320;28;20206;-51
2022/04/12 08:52:36;;;;;;;10.60;7.70;;;15.00;99.90;;;;;;5031915;28;20227;-51
2022/04/12 08:55:05;;;;;;;11.30;8.18;;;15.10;99.90;;;;;;5035449;28;20823;-52
2022/04/12 08:57:34;;;;;;;9.80;7.65;;;15.20;99.90;;;;;;5048089;28;20279;-52
2022/04/12 09:00:03;;;;;;;9.18;7.40;;;15.30;99.90;;;;;;5051389;28;20256;-52
2022/04/12 09:02:31;;;;;;;9.45;7.20;;;15.60;99.90;;;;;;5050076;28;20739;-52
2022/04/12 09:05:00;;;;;;;9.35;6.93;;;15.60;99.90;;;;;;5051595;28;20348;-52
2022/04/12 09:07:29;;;;;;;10.50;6.57;;;15.40;99.90;;;;;;5050509;28;20194;-52
2022/04/12 09:10:06;;;;;;;8.77;6.57;;;15.20;99.90;;;;;;5051680;28;20205;-52
2022/04/12 09:12:35;;;;;;;10.93;6.88;;;15.10;99.90;;;;;;5050806;28;20225;-52
2022/04/12 09:15:09;;;;;;;11.38;7.22;;;15.00;99.90;;;;;;5051377;28;20267;-52
2022/04/12 09:17:41;;;;;;;8.70;6.73;;;15.20;99.90;;;;;;5051361;28;20224;-52
2022/04/12 09:20:13;;;;;;;8.48;6.85;;;15.30;99.90;;;;;;5051845;28;20259;-52
2022/04/12 09:22:43;;;;;;;10.45;6.18;;;15.50;99.90;;;;;;5034809;28;20652;-52
2022/04/12 09:25:13;;;;;;;8.88;6.43;;;15.70;99.90;;;;;;5032106;28;20210;-52
2022/04/12 09:27:44;;;;;;;8.55;6.60;;;15.70;99.90;;;;;;5031576;28;20190;-52
2022/04/12 09:30:14;;;;;;;8.48;6.80;;;15.70;99.90;;;;;;5031838;28;20206;-52
2022/04/12 09:32:46;;;;;;;10.35;6.93;;;15.80;99.90;;;;;;5031329;28;20226;-52
2022/04/12 09:35:15;;;;;;;9.60;6.85;;;15.90;99.90;;;;;;5031391;28;20264;-52
2022/04/12 09:37:46;;;;;;;9.65;6.70;;;15.80;99.90;;;;;;5031773;28;20226;-51
2022/04/12 09:40:15;;;;;;;7.45;6.40;;;15.80;99.90;;;;;;5031618;28;20289;-52
2022/04/12 09:42:45;;;;;;;9.05;6.85;;;15.80;99.90;;;;;;5031199;28;20226;-51
2022/04/12 09:45:15;;;;;;;9.32;7.00;;;15.90;99.90;;;;;;5031128;28;20243;-52
2022/04/12 09:47:44;;;;;;;9.15;6.80;;;16.00;99.90;;;;;;5031591;28;20210;-52
2022/04/12 09:50:33;;;;;;;10.75;6.80;;;16.00;99.90;;;;;;5030533;28;20694;-51
2022/04/12 09:53:11;;;;;;;8.57;6.93;;;16.10;99.90;;;;;;5030965;28;20582;-51
2022/04/12 09:55:41;;;;;;;9.85;6.93;;;16.10;99.90;;;;;;5040065;28;20336;-51
2022/04/12 09:58:13;;;;;;;10.32;7.05;;;16.20;99.90;;;;;;5045279;28;21029;-51
2022/04/12 10:00:42;;;;;;;9.45;6.50;;;16.30;99.90;;;;;;5049904;28;20209;-51
2022/04/12 10:03:12;;;;;;;11.05;6.75;;;16.50;99.90;;;;;;5050680;28;20221;-51
2022/04/12 10:05:41;;;;;;;8.05;6.20;;;16.40;99.90;;;;;;5050923;28;20232;-52
2022/04/12 10:08:12;;;;;;;8.68;6.28;;;16.50;99.90;;;;;;5051010;28;20627;-51
2022/04/12 10:10:42;;;;;;;8.75;6.20;;;16.60;99.90;;;;;;5051086;28;20208;-51
2022/04/12 10:13:12;;;;;;;8.35;6.40;;;16.70;99.90;;;;;;5050405;28;20229;-51
2022/04/12 10:15:41;;;;;;;10.55;6.20;;;16.70;99.90;;;;;;5043447;28;20296;-51
2022/04/12 10:18:11;;;;;;;7.72;6.38;;;16.70;99.90;;;;;;5051112;28;20295;-51
2022/04/12 10:20:40;;;;;;;6.85;5.75;;;16.70;99.90;;;;;;5050090;28;20679;-51
2022/04/12 10:23:17;;;;;;;7.80;5.88;;;16.70;99.90;;;;;;5050681;28;20189;-51
2022/04/12 10:25:49;;;;;;;8.43;5.97;;;16.80;99.90;;;;;;5050047;28;20205;-52
2022/04/12 10:28:18;;;;;;;9.15;5.75;;;16.80;99.90;;;;;;5050301;28;20255;-52
2022/04/12 10:30:46;;;;;;;9.02;6.60;;;16.90;99.90;;;;;;5050238;28;20202;-51
2022/04/12 10:33:20;;;;;;;10.60;6.28;;;17.00;99.90;;;;;;5049964;28;20263;-52
2022/04/12 10:36:06;;;;;;;7.60;5.53;;;17.00;99.90;;;;;;5050042;28;20232;-51
2022/04/12 10:38:43;;;;;;;7.78;5.60;;;17.10;99.90;;;;;;5050904;28;20206;-52
2022/04/12 10:41:14;;;;;;;9.05;6.65;;;17.20;99.90;;;;;;5050109;28;20225;-52
2022/04/12 10:43:43;;;;;;;9.10;5.57;;;17.30;99.90;;;;;;5050032;28;20198;-51
2022/04/12 10:46:12;;;;;;;9.07;6.32;;;17.40;99.90;;;;;;5050277;28;20684;-52
2022/04/12 10:48:41;;;;;;;8.98;6.05;;;17.40;99.90;;;;;;5050544;28;20292;-52
2022/04/12 10:51:09;;;;;;;8.63;5.75;;;17.50;99.90;;;;;;5050489;28;20233;-51
2022/04/12 10:53:58;;;;;;;7.10;5.35;;;17.60;99.90;;;;;;5049745;28;20237;-52
2022/04/12 10:56:26;;;;;;;8.65;5.50;;;17.70;99.90;;;;;;5050227;28;20209;-52
2022/04/12 10:58:55;;;;;;;9.40;5.85;;;17.70;99.90;;;;;;5049564;28;20272;-52
2022/04/12 11:01:35;;;;;;;9.18;5.70;;;17.70;99.90;;;;;;5048688;28;20765;-52
2022/04/12 11:04:04;;;;;;;8.40;5.07;;;17.80;99.90;;;;;;5046127;28;20767;-52
2022/04/12 11:06:34;;;;;;;8.13;5.75;;;17.70;99.90;;;;;;5046528;28;20268;-52
2022/04/12 11:09:14;;;;;;;8.13;5.53;;;17.90;99.30;;;;;;5052980;28;20247;-51
2022/04/12 11:11:44;;;;;;;7.47;4.97;;;17.80;99.70;;;;;;5052849;28;20229;-52
2022/04/12 11:14:23;;;;;;;9.27;5.72;;;17.80;99.90;;;;;;5053195;28;20201;-52
2022/04/12 11:16:55;;;;;;;8.23;5.40;;;17.80;99.90;;;;;;5054270;28;20209;-52
2022/04/12 11:19:24;;;;;;;7.22;5.28;;;17.90;99.90;;;;;;5053353;28;20603;-52
2022/04/12 11:22:03;;;;;;;6.93;5.45;;;17.90;99.40;;;;;;5053729;28;20276;-52
2022/04/12 11:24:33;;;;;;;8.23;5.35;;;18.00;98.70;;;;;;5065981;28;20259;-52
2022/04/12 11:27:11;;;;;;;6.47;4.75;;;18.10;99.00;;;;;;5073896;28;20695;-52
2022/04/12 11:29:40;;;;;;;7.78;5.20;;;18.00;99.80;;;;;;5074229;28;20185;-51
2022/04/12 11:32:11;;;;;;;7.75;5.30;;;18.00;99.90;;;;;;5073190;28;20229;-52
2022/04/12 11:34:41;;;;;;;7.55;4.70;;;18.00;99.60;;;;;;5059710;28;20213;-52
2022/04/12 11:37:10;;;;;;;6.65;4.90;;;18.00;99.90;;;;;;5054118;28;20239;-52
2022/04/12 11:39:43;;;;;;;7.30;4.97;;;17.90;99.90;;;;;;5054102;28;20229;-52
2022/04/12 11:42:13;;;;;;;6.32;4.95;;;17.90;99.90;;;;;;5053377;28;20332;-52
2022/04/12 11:44:51;;;;;;;5.97;4.50;;;18.00;99.90;;;;;;5054199;28;20206;-52
2022/04/12 11:47:19;;;;;;;5.30;4.28;;;18.00;99.90;;;;;;5054080;28;20205;-52
2022/04/12 11:49:48;;;;;;;6.68;4.05;;;18.10;99.90;;;;;;5053831;28;20204;-52
2022/04/12 11:52:16;;;;;;;6.00;4.78;;;18.10;99.50;;;;;;5053505;28;20263;-52
2022/04/12 11:54:48;;;;;;;6.40;4.90;;;18.10;99.90;;;;;;5053125;28;20640;-51
2022/04/12 11:57:20;;;;;;;6.25;4.50;;;18.10;99.80;;;;;;5053811;28;20205;-52
2022/04/12 11:59:50;;;;;;;6.07;4.85;;;18.20;99.80;;;;;;5053231;28;20209;-52
2022/04/12 12:02:22;;;;;;;9.73;4.32;;;18.30;98.60;;;;;;5052950;28;20279;-52
2022/04/12 12:04:51;;;;;;;6.05;4.50;;;18.20;99.40;;;;;;5053199;28;20525;-52
2022/04/12 12:07:20;;;;;;;7.07;4.40;;;18.30;99.20;;;;;;5052629;28;20213;-52
2022/04/12 12:09:57;;;;;;;9.75;5.40;;;18.30;99.90;;;;;;5053074;28;20204;-52
2022/04/12 12:12:32;;;;;;;7.57;4.95;;;18.30;99.90;;;;;;5051477;28;20225;-51
2022/04/12 12:15:12;;;;;;;8.02;4.68;;;18.40;97.80;;;;;;5032790;28;20198;-52
2022/04/12 12:17:41;;;;;;;7.28;5.00;;;18.40;97.90;;;;;;5048298;28;20205;-52
2022/04/12 12:20:10;;;;;;;6.80;5.13;;;18.30;98.00;;;;;;5053074;28;20225;-52
2022/04/12 12:22:40;;;;;;;6.32;4.68;;;18.40;98.10;;;;;;5051871;28;20226;-52
2022/04/12 12:25:18;;;;;;;5.75;4.70;;;18.40;98.30;;;;;;5053211;28;20194;-52
2022/04/12 12:27:50;;;;;;;6.93;5.00;;;18.50;98.50;;;;;;5052571;28;20576;-52
2022/04/12 12:30:20;;;;;;;7.53;4.55;;;18.60;96.60;;;;;;5052455;28;20247;-52
2022/04/12 12:32:52;;;;;;;6.95;4.97;;;18.60;96.40;;;;;;5051031;28;20699;-52
2022/04/12 12:35:21;;;;;;;7.03;4.43;;;18.60;96.70;;;;;;5052499;28;20259;-52
2022/04/12 12:37:49;;;;;;;6.75;4.38;;;18.60;96.50;;;;;;5052404;28;20213;-52
2022/04/12 12:40:21;;;;;;;6.35;4.13;;;18.50;97.00;;;;;;5052634;28;20267;-52
2022/04/12 12:42:50;;;;;;;5.82;4.00;;;18.60;96.00;;;;;;5051406;28;20573;-51
2022/04/12 12:45:20;;;;;;;6.97;4.40;;;18.60;96.40;;;;;;5052150;28;20602;-51
2022/04/12 12:47:51;;;;;;;6.18;4.30;;;18.70;96.90;;;;;;5052142;28;20263;-52
2022/04/12 12:50:21;;;;;;;8.43;5.05;;;18.80;96.50;;;;;;5052254;28;20193;-51
2022/04/12 12:52:50;;;;;;;6.60;4.55;;;18.90;96.60;;;;;;5051894;28;20222;-52
2022/04/12 12:55:23;;;;;;;7.10;4.53;;;18.90;96.10;;;;;;5051438;28;20205;-52
2022/04/12 12:57:53;;;;;;;5.63;4.05;;;19.00;95.80;;;;;;5052323;28;20209;-52
2022/04/12 13:00:27;;;;;;;6.45;3.45;;;19.10;96.40;;;;;;5051245;28;20866;-52
2022/04/12 13:03:01;;;;;;;3.95;2.97;;;19.10;96.70;;;;;;5050980;28;21193;-52
2022/04/12 13:05:30;;;;;;;6.82;3.00;;;19.20;95.30;;;;;;5064003;28;20208;-52